createdAt,value
2023-02-22T00:01:19.377Z,100507.59
2023-02-22T00:03:51.121Z,100494.88
2023-02-22T00:06:20.858Z,100501.66
2023-02-22T00:08:50.536Z,100503.19
2023-02-22T00:11:20.559Z,100498.19
2023-02-22T00:13:50.533Z,100500.69
2023-02-22T00:16:21.119Z,100498.97
2023-02-22T00:18:50.055Z,100500.72
2023-02-22T00:21:19.725Z,100500.50
2023-02-22T00:23:50.358Z,100496.78
2023-02-22T00:26:23.507Z,100500.06
2023-02-22T00:28:54.431Z,100500.34
2023-02-22T00:31:24.301Z,100493.38
2023-02-22T00:33:53.306Z,100500.88
2023-02-22T00:36:21.507Z,100498.44
2023-02-22T00:38:51.001Z,100490.72
2023-02-22T00:41:19.644Z,100499.41
2023-02-22T00:43:49.009Z,100497.69
2023-02-22T00:46:17.656Z,100495.44
2023-02-22T00:48:46.999Z,100488.97
2023-02-22T00:51:16.928Z,100488.97
2023-02-22T00:53:45.702Z,100491.00
2023-02-22T00:56:15.401Z,100490.03
2023-02-22T00:58:44.646Z,100482.06
2023-02-22T01:01:13.080Z,100473.88
2023-02-22T01:03:41.465Z,100480.81
2023-02-22T01:06:10.286Z,100476.84
2023-02-22T01:08:38.926Z,100478.59
2023-02-22T01:11:07.075Z,100473.09
2023-02-22T01:13:39.299Z,100475.84
2023-02-22T01:16:09.163Z,100475.34
2023-02-22T01:18:37.975Z,100463.91
2023-02-22T01:21:08.785Z,100459.94
2023-02-22T01:23:37.350Z,100465.91
2023-02-22T01:26:06.206Z,100467.63
2023-02-22T01:28:36.041Z,100471.63
2023-02-22T01:31:04.324Z,100466.16
2023-02-22T01:33:34.148Z,100461.19
2023-02-22T01:36:03.702Z,100456.72
2023-02-22T01:38:31.876Z,100453.97
2023-02-22T01:41:01.231Z,100463.19
2023-02-22T01:43:33.117Z,100452.97
2023-02-22T01:46:05.603Z,100458.47
2023-02-22T01:48:41.272Z,100450.75
2023-02-22T01:51:14.078Z,100453.25
2023-02-22T01:53:50.943Z,100460.94
2023-02-22T01:56:22.244Z,100444.78
2023-02-22T01:58:55.023Z,100445.03
2023-02-22T02:01:26.870Z,100448.03
2023-02-22T02:03:59.856Z,100436.09
2023-02-22T02:06:32.305Z,100443.78
2023-02-22T02:09:10.730Z,100437.59
2023-02-22T02:11:41.461Z,100437.31
2023-02-22T02:14:11.641Z,100436.09
2023-02-22T02:16:45.185Z,100432.63
2023-02-22T02:19:24.072Z,100426.38
2023-02-22T02:22:19.207Z,100431.63
2023-02-22T02:25:28.234Z,100426.63
2023-02-22T02:28:30.326Z,100427.88
2023-02-22T02:31:22.792Z,100411.97
2023-02-22T02:34:00.667Z,100411.72
2023-02-22T02:36:34.260Z,100415.94
2023-02-22T02:39:10.222Z,100405.25
2023-02-22T02:41:45.466Z,100413.69
2023-02-22T02:44:22.477Z,100406.75
2023-02-22T02:46:57.686Z,100409.47
2023-02-22T02:49:35.675Z,100402.00
2023-02-22T02:52:05.879Z,100402.25
2023-02-22T02:54:37.067Z,100388.56
2023-02-22T02:57:06.314Z,100396.28
2023-02-22T02:59:37.318Z,100395.28
2023-02-22T03:02:18.070Z,100399.53
2023-02-22T03:05:03.200Z,100391.31
2023-02-22T03:07:44.508Z,100398.03
2023-02-22T03:10:26.746Z,100396.53
2023-02-22T03:13:03.312Z,100390.34
2023-02-22T03:15:42.190Z,100385.63
2023-02-22T03:18:17.876Z,100398.03
2023-02-22T03:20:53.572Z,100392.56
2023-02-22T03:23:28.224Z,100386.84
2023-02-22T03:26:04.528Z,100395.81
2023-02-22T03:28:39.596Z,100397.53
2023-02-22T03:31:13.541Z,100390.56
2023-02-22T03:33:47.309Z,100390.31
2023-02-22T03:36:24.937Z,100397.75
2023-02-22T03:39:01.048Z,100385.28
2023-02-22T03:41:31.911Z,100387.78
2023-02-22T03:44:06.710Z,100396.97
2023-02-22T03:46:39.489Z,100383.06
2023-02-22T03:49:13.383Z,100390.75
2023-02-22T03:51:45.227Z,100394.47
2023-02-22T03:54:16.719Z,100391.22
2023-02-22T03:56:53.795Z,100393.47
2023-02-22T03:59:27.817Z,100386.00
2023-02-22T04:01:56.955Z,100387.75
2023-02-22T04:04:27.179Z,100381.25
2023-02-22T04:06:56.935Z,100380.03
2023-02-22T04:09:26.304Z,100385.97
2023-02-22T04:11:54.758Z,100380.75
2023-02-22T04:14:23.954Z,100378.50
2023-02-22T04:16:52.761Z,100380.25
2023-02-22T04:19:23.469Z,100378.75
2023-02-22T04:21:53.584Z,100374.31
2023-02-22T04:24:30.442Z,100369.59
2023-02-22T04:26:59.464Z,100374.31
2023-02-22T04:29:28.032Z,100375.31
2023-02-22T04:31:56.592Z,100368.84
2023-02-22T04:34:26.454Z,100371.84
2023-02-22T04:36:56.038Z,100371.31
2023-02-22T04:39:24.874Z,100373.31
2023-02-22T04:41:55.330Z,100364.59
2023-02-22T04:44:23.843Z,100362.13
2023-02-22T04:46:53.197Z,100365.06
2023-02-22T04:49:21.460Z,100370.53
2023-02-22T04:51:50.775Z,100366.06
2023-02-22T04:54:23.516Z,100362.84
2023-02-22T04:56:54.139Z,100364.84
2023-02-22T04:59:22.487Z,100364.84
2023-02-22T05:01:58.013Z,100360.38
2023-02-22T05:04:28.008Z,100362.34
2023-02-22T05:06:57.433Z,100370.78
2023-02-22T05:09:26.153Z,100368.06
2023-02-22T05:11:58.359Z,100363.38
2023-02-22T05:14:27.589Z,100362.38
2023-02-22T05:16:56.129Z,100359.88
2023-02-22T05:19:24.407Z,100365.56
2023-02-22T05:21:52.840Z,100362.06
2023-02-22T05:24:20.962Z,100359.06
2023-02-22T05:26:51.140Z,100367.00
2023-02-22T05:29:21.246Z,100368.25
2023-02-22T05:31:49.930Z,100366.75
2023-02-22T05:34:18.324Z,100368.25
2023-02-22T05:36:46.974Z,100369.97
2023-02-22T05:39:15.092Z,100370.50
2023-02-22T05:41:43.455Z,100372.44
2023-02-22T05:44:11.911Z,100361.03
2023-02-22T05:46:41.464Z,100363.56
2023-02-22T05:49:10.009Z,100358.59
2023-02-22T05:51:38.202Z,100359.84
2023-02-22T05:54:06.644Z,100367.31
2023-02-22T05:56:36.349Z,100361.66
2023-02-22T05:59:05.106Z,100362.66
2023-02-22T06:01:34.814Z,100362.91
2023-02-22T06:04:04.469Z,100358.66
2023-02-22T06:06:32.971Z,100362.16
2023-02-22T06:09:01.574Z,100364.16
2023-02-22T06:11:30.025Z,100363.69
2023-02-22T06:13:58.588Z,100370.91
2023-02-22T06:16:26.984Z,100365.19
2023-02-22T06:18:56.342Z,100368.44
2023-02-22T06:21:26.949Z,100377.38
2023-02-22T06:23:56.779Z,100371.19
2023-02-22T06:26:25.065Z,100379.88
2023-02-22T06:28:53.778Z,100375.66
2023-02-22T06:31:23.527Z,100384.81
2023-02-22T06:33:52.334Z,100380.59
2023-02-22T06:36:20.600Z,100384.59
2023-02-22T06:38:50.152Z,100387.53
2023-02-22T06:41:18.757Z,100391.06
2023-02-22T06:43:48.528Z,100393.00
2023-02-22T06:46:16.565Z,100393.28
2023-02-22T06:48:44.848Z,100389.06
2023-02-22T06:51:14.080Z,100388.84
2023-02-22T06:53:43.834Z,100383.09
2023-02-22T06:56:13.313Z,100386.59
2023-02-22T06:58:41.674Z,100394.53
2023-02-22T07:01:09.952Z,100390.09
2023-02-22T07:03:38.742Z,100399.06
2023-02-22T07:06:11.121Z,100396.78
2023-02-22T07:08:39.556Z,100394.31
2023-02-22T07:11:07.965Z,100403.47
2023-02-22T07:13:37.792Z,100406.47
2023-02-22T07:16:06.154Z,100407.16
2023-02-22T07:18:36.032Z,100407.16
2023-02-22T07:21:04.702Z,100400.59
2023-02-22T07:23:33.131Z,100411.81
2023-02-22T07:26:01.998Z,100416.72
2023-02-22T07:28:30.304Z,100412.41
2023-02-22T07:31:01.528Z,100422.84
2023-02-22T07:33:31.353Z,100414.78
2023-02-22T07:35:59.456Z,100418.91
2023-02-22T07:38:28.720Z,100418.66
2023-02-22T07:40:57.973Z,100417.28
2023-02-22T07:43:29.033Z,100427.06
2023-02-22T07:46:02.944Z,100419.88
2023-02-22T07:48:32.479Z,100425.00
2023-02-22T07:51:02.255Z,100416.03
2023-02-22T07:53:31.773Z,100411.09
2023-02-22T07:56:02.246Z,100407.22
2023-02-22T07:58:32.012Z,100407.06
2023-02-22T08:01:02.374Z,100407.06
2023-02-22T08:03:34.327Z,100409.84
2023-02-22T08:06:03.044Z,100405.81
2023-02-22T08:08:31.453Z,100413.03
2023-02-22T08:11:00.642Z,100403.47
2023-02-22T08:13:29.065Z,100394.84
2023-02-22T08:15:57.238Z,100396.66
2023-02-22T08:18:27.427Z,100397.84
2023-02-22T08:20:55.861Z,100397.66
2023-02-22T08:23:27.300Z,100396.28
2023-02-22T08:25:57.066Z,100396.53
2023-02-22T08:28:25.774Z,100394.50
2023-02-22T08:30:54.421Z,100390.47
2023-02-22T08:33:22.997Z,100390.28
2023-02-22T08:35:55.557Z,100390.91
2023-02-22T08:38:27.077Z,100386.81
2023-02-22T08:40:55.903Z,100385.13
2023-02-22T08:43:25.261Z,100384.28
2023-02-22T08:45:56.912Z,100392.03
2023-02-22T08:48:25.841Z,100392.44
2023-02-22T08:50:56.297Z,100392.69
2023-02-22T08:53:26.099Z,100385.53
2023-02-22T08:55:54.076Z,100389.31
2023-02-22T08:58:22.752Z,100401.09
2023-02-22T09:00:52.787Z,100393.84
2023-02-22T09:03:28.463Z,100396.66
2023-02-22T09:05:59.635Z,100392.97
2023-02-22T09:08:28.121Z,100396.47
2023-02-22T09:10:56.531Z,100393.84
2023-02-22T09:13:26.323Z,100387.25
2023-02-22T09:15:55.316Z,100388.78
2023-02-22T09:18:25.597Z,100390.09
2023-02-22T09:20:55.675Z,100395.16
2023-02-22T09:23:28.564Z,100392.81
2023-02-22T09:25:59.442Z,100393.28
2023-02-22T09:28:29.289Z,100392.41
2023-02-22T09:30:59.349Z,100393.88
2023-02-22T09:33:27.754Z,100388.00
2023-02-22T09:35:56.041Z,100388.47
2023-02-22T09:38:26.121Z,100386.28
2023-02-22T09:41:09.005Z,100375.66
2023-02-22T09:43:43.364Z,100373.38
2023-02-22T09:46:22.873Z,100364.88
2023-02-22T09:48:58.817Z,100362.94
2023-02-22T09:51:35.893Z,100365.78
2023-02-22T09:54:14.475Z,100361.41
2023-02-22T09:56:46.830Z,100360.69
2023-02-22T09:59:24.349Z,100359.59
2023-02-22T10:01:58.364Z,100361.03
2023-02-22T10:04:37.495Z,100361.03
2023-02-22T10:07:18.650Z,100353.31
2023-02-22T10:09:51.220Z,100350.72
2023-02-22T10:12:29.965Z,100350.16
2023-02-22T10:15:31.852Z,100352.00
2023-02-22T10:18:18.787Z,100353.88
2023-02-22T10:20:55.757Z,100346.66
2023-02-22T10:23:32.305Z,100344.56
2023-02-22T10:26:17.383Z,100341.22
2023-02-22T10:28:55.415Z,100341.41
2023-02-22T10:31:31.571Z,100341.00
2023-02-22T10:34:02.021Z,100336.63
2023-02-22T10:36:30.958Z,100337.41
2023-02-22T10:39:02.209Z,100342.97
2023-02-22T10:41:34.766Z,100333.47
2023-02-22T10:44:04.100Z,100330.41
2023-02-22T10:46:36.892Z,100336.19
2023-02-22T10:49:08.212Z,100335.59
2023-02-22T10:51:36.812Z,100328.19
2023-02-22T10:54:26.621Z,100326.41
2023-02-22T10:56:57.902Z,100327.66
2023-02-22T10:59:32.766Z,100329.03
2023-02-22T11:02:11.140Z,100325.53
2023-02-22T11:04:49.878Z,100325.00
2023-02-22T11:07:23.901Z,100323.75
2023-02-22T11:09:54.928Z,100331.34
2023-02-22T11:12:32.114Z,100317.22
2023-02-22T11:15:27.721Z,100315.88
2023-02-22T11:17:57.744Z,100325.50
2023-02-22T11:20:29.725Z,100309.63
2023-02-22T11:23:01.125Z,100304.78
2023-02-22T11:25:32.977Z,100307.84
2023-02-22T11:28:12.941Z,100301.78
2023-02-22T11:30:45.144Z,100304.03
2023-02-22T11:33:24.127Z,100296.75
2023-02-22T11:35:55.831Z,100294.31
2023-02-22T11:38:25.922Z,100295.94
2023-02-22T11:41:27.554Z,100289.56
2023-02-22T11:44:15.217Z,100288.63
2023-02-22T11:46:44.746Z,100288.69
2023-02-22T11:49:17.335Z,100291.94
2023-02-22T11:51:56.288Z,100283.22
2023-02-22T11:54:46.362Z,100274.06
2023-02-22T11:57:23.002Z,100277.06
2023-02-22T12:00:16.866Z,100271.47
2023-02-22T12:02:57.753Z,100274.72
2023-02-22T12:05:39.102Z,100269.72
2023-02-22T12:08:21.489Z,100261.06
2023-02-22T12:11:03.528Z,100254.31
2023-02-22T12:13:50.428Z,100256.81
2023-02-22T12:16:30.246Z,100250.72
2023-02-22T12:19:16.571Z,100251.25
2023-02-22T12:21:47.804Z,100246.75
2023-02-22T12:24:22.827Z,100250.19
2023-02-22T12:26:56.181Z,100251.38
2023-02-22T12:29:33.018Z,100245.94
2023-02-22T12:32:08.840Z,100245.56
2023-02-22T12:34:41.563Z,100241.72
2023-02-22T12:37:18.006Z,100237.38
2023-02-22T12:39:54.956Z,100238.47
2023-02-22T12:42:34.325Z,100232.44
2023-02-22T12:45:10.383Z,100227.53
2023-02-22T12:48:02.176Z,100224.25
2023-02-22T12:50:34.540Z,100223.91
2023-02-22T12:53:13.892Z,100223.94
2023-02-22T12:55:47.674Z,100219.44
2023-02-22T12:58:25.896Z,100212.72
2023-02-22T13:01:01.883Z,100224.06
2023-02-22T13:03:39.002Z,100225.28
2023-02-22T13:06:27.580Z,100222.63
2023-02-22T13:09:08.721Z,100224.09
2023-02-22T13:11:45.038Z,100219.25
2023-02-22T13:14:24.044Z,100215.59
2023-02-22T13:16:58.926Z,100212.22
2023-02-22T13:19:51.441Z,100204.75
2023-02-22T13:22:25.679Z,100205.63
2023-02-22T13:25:03.493Z,100212.94
2023-02-22T13:27:40.857Z,100204.28
2023-02-22T13:30:23.320Z,100202.66
2023-02-22T13:33:11.510Z,100199.28
2023-02-22T13:35:58.156Z,100202.81
2023-02-22T13:39:06.180Z,100190.31
2023-02-22T13:42:16.417Z,100195.50
2023-02-22T13:45:04.124Z,100189.50
2023-02-22T13:47:47.259Z,100192.41
2023-02-22T13:51:00.593Z,100189.44
2023-02-22T13:53:37.865Z,100185.19
2023-02-22T13:56:07.706Z,100189.56
2023-02-22T13:58:48.878Z,100192.63
2023-02-22T14:01:41.994Z,100190.47
2023-02-22T14:04:37.452Z,100188.44
2023-02-22T14:07:57.682Z,100186.81
2023-02-22T14:10:56.166Z,100191.22
2023-02-22T14:13:26.928Z,100182.72
2023-02-22T14:16:24.609Z,100185.06
2023-02-22T14:19:06.450Z,100183.00
2023-02-22T14:21:36.156Z,100184.19
2023-02-22T14:24:07.985Z,100181.72
2023-02-22T14:26:39.630Z,100176.41
2023-02-22T14:29:18.114Z,100169.06
2023-02-22T14:32:10.476Z,100164.22
2023-02-22T14:34:49.478Z,100158.34
2023-02-22T14:37:20.762Z,100158.19
2023-02-22T14:39:52.861Z,100157.91
2023-02-22T14:42:26.197Z,100160.84
2023-02-22T14:45:00.639Z,100152.47
2023-02-22T14:47:40.191Z,100156.13
2023-02-22T14:50:17.582Z,100152.47
2023-02-22T14:52:48.853Z,100148.06
2023-02-22T14:55:24.930Z,100149.09
2023-02-22T14:58:02.937Z,100148.63
2023-02-22T15:00:42.088Z,100158.00
2023-02-22T15:03:29.120Z,100145.84
2023-02-22T15:06:00.119Z,100148.78
2023-02-22T15:08:30.557Z,100144.78
2023-02-22T15:10:58.866Z,100147.06
2023-02-22T15:13:33.029Z,100146.75
2023-02-22T15:16:03.439Z,100145.75
2023-02-22T15:18:41.281Z,100149.56
2023-02-22T15:21:15.935Z,100147.81
2023-02-22T15:23:50.436Z,100147.09
2023-02-22T15:26:28.678Z,100149.00
2023-02-22T15:29:00.864Z,100140.19
2023-02-22T15:31:33.876Z,100143.88
2023-02-22T15:34:20.933Z,100147.81
2023-02-22T15:36:54.414Z,100145.31
2023-02-22T15:39:27.245Z,100144.44
2023-02-22T15:42:03.703Z,100146.94
2023-02-22T15:44:37.988Z,100148.81
2023-02-22T15:47:07.012Z,100143.53
2023-02-22T15:49:37.905Z,100159.81
2023-02-22T15:52:11.153Z,100149.50
2023-02-22T15:54:46.148Z,100151.25
2023-02-22T15:57:19.259Z,100148.00
2023-02-22T15:59:52.980Z,100149.13
2023-02-22T16:02:31.479Z,100145.72
2023-02-22T16:05:03.926Z,100144.34
2023-02-22T16:07:33.470Z,100149.28
2023-02-22T16:10:09.384Z,100151.88
2023-02-22T16:12:37.824Z,100144.69
2023-02-22T16:15:17.321Z,100149.28
2023-02-22T16:18:01.448Z,100148.19
2023-02-22T16:20:33.513Z,100144.00
2023-02-22T16:23:02.035Z,100144.84
2023-02-22T16:25:35.885Z,100145.66
2023-02-22T16:28:24.811Z,100140.78
2023-02-22T16:30:59.434Z,100146.19
2023-02-22T16:33:33.819Z,100145.03
2023-02-22T16:36:08.387Z,100149.59
2023-02-22T16:38:39.169Z,100149.19
2023-02-22T16:41:08.451Z,100147.78
2023-02-22T16:43:37.299Z,100149.75
2023-02-22T16:46:07.336Z,100149.66
2023-02-22T16:48:38.563Z,100156.38
2023-02-22T16:51:15.333Z,100156.63
2023-02-22T16:53:44.614Z,100159.09
2023-02-22T16:56:16.467Z,100158.25
2023-02-22T16:58:46.819Z,100157.41
2023-02-22T17:01:17.269Z,100163.38
2023-02-22T17:03:46.367Z,100156.38
2023-02-22T17:06:14.798Z,100159.75
2023-02-22T17:08:47.274Z,100157.03
2023-02-22T17:11:16.716Z,100162.44
2023-02-22T17:13:45.688Z,100163.78
2023-02-22T17:16:19.671Z,100161.03
2023-02-22T17:18:50.320Z,100172.31
2023-02-22T17:21:18.504Z,100172.34
2023-02-22T17:23:46.991Z,100171.09
2023-02-22T17:26:16.581Z,100174.59
2023-02-22T17:28:45.219Z,100173.31
2023-02-22T17:31:22.882Z,100183.09
2023-02-22T17:33:52.336Z,100187.19
2023-02-22T17:36:20.976Z,100187.56
2023-02-22T17:38:51.876Z,100185.72
2023-02-22T17:41:23.315Z,100182.41
2023-02-22T17:43:53.234Z,100192.38
2023-02-22T17:46:33.556Z,100189.44
2023-02-22T17:49:10.664Z,100196.44
2023-02-22T17:51:41.335Z,100196.09
2023-02-22T17:54:10.504Z,100207.34
2023-02-22T17:56:38.997Z,100207.88
2023-02-22T17:59:13.419Z,100200.69
2023-02-22T18:01:46.295Z,100203.63
2023-02-22T18:04:18.218Z,100207.31
2023-02-22T18:06:46.642Z,100200.13
2023-02-22T18:09:17.724Z,100206.19
2023-02-22T18:11:46.122Z,100204.53
2023-02-22T18:14:14.698Z,100202.97
2023-02-22T18:16:46.899Z,100200.56
2023-02-22T18:19:20.037Z,100204.59
2023-02-22T18:21:52.597Z,100200.16
2023-02-22T18:24:20.832Z,100195.94
2023-02-22T18:26:50.397Z,100199.59
2023-02-22T18:29:18.623Z,100201.06
2023-02-22T18:31:48.767Z,100201.81
2023-02-22T18:34:17.613Z,100199.03
2023-02-22T18:36:46.261Z,100197.38
2023-02-22T18:39:14.608Z,100206.59
2023-02-22T18:41:44.890Z,100206.78
2023-02-22T18:44:14.133Z,100202.53
2023-02-22T18:46:43.440Z,100205.19
2023-02-22T18:49:14.766Z,100204.81
2023-02-22T18:51:45.934Z,100205.22
2023-02-22T18:54:14.982Z,100202.28
2023-02-22T18:56:43.663Z,100206.69
2023-02-22T18:59:18.496Z,100207.41
2023-02-22T19:01:49.184Z,100211.63
2023-02-22T19:04:19.694Z,100209.03
2023-02-22T19:06:50.579Z,100213.06
2023-02-22T19:09:19.025Z,100199.22
2023-02-22T19:11:48.331Z,100198.81
2023-02-22T19:14:19.442Z,100205.44
2023-02-22T19:16:50.380Z,100199.53
2023-02-22T19:19:22.502Z,100210.22
2023-02-22T19:21:51.983Z,100196.22
2023-02-22T19:24:20.513Z,100203.91
2023-02-22T19:26:51.556Z,100196.94
2023-02-22T19:29:22.402Z,100190.31
2023-02-22T19:31:52.066Z,100194.38
2023-02-22T19:34:24.908Z,100194.91
2023-02-22T19:36:53.520Z,100192.50
2023-02-22T19:41:55.602Z,100198.94
2023-02-22T19:44:26.392Z,100194.69
2023-02-22T19:46:55.377Z,100202.78
2023-02-22T19:49:29.198Z,100201.84
2023-02-22T19:52:06.707Z,100203.88
2023-02-22T19:54:35.232Z,100204.44
2023-02-22T19:57:06.054Z,100194.66
2023-02-22T19:59:34.723Z,100192.63
2023-02-22T20:02:03.075Z,100195.75
2023-02-22T20:04:34.405Z,100201.63
2023-02-22T20:07:03.870Z,100206.75
2023-02-22T20:09:36.546Z,100205.81
2023-02-22T20:12:06.064Z,100208.38
2023-02-22T20:14:36.612Z,100198.44
2023-02-22T20:17:07.674Z,100204.50
2023-02-22T20:19:40.395Z,100210.00
2023-02-22T20:22:13.297Z,100203.56
2023-02-22T20:24:47.454Z,100213.66
2023-02-22T20:27:18.316Z,100204.44
2023-02-22T20:29:47.957Z,100214.56
2023-02-22T20:32:17.822Z,100218.03
2023-02-22T20:34:50.255Z,100214.72
2023-02-22T20:37:18.729Z,100219.09
2023-02-22T20:39:47.567Z,100211.69
2023-02-22T20:42:16.491Z,100221.59
2023-02-22T20:44:45.225Z,100216.97
2023-02-22T20:47:13.815Z,100215.09
2023-02-22T20:49:42.317Z,100218.72
2023-02-22T20:52:12.175Z,100219.25
2023-02-22T20:54:40.889Z,100219.88
2023-02-22T20:57:09.217Z,100230.41
2023-02-22T20:59:37.794Z,100224.22
2023-02-22T21:02:06.765Z,100233.41
2023-02-22T21:04:35.472Z,100235.28
2023-02-22T21:07:03.719Z,100220.59
2023-02-22T21:09:34.193Z,100221.22
2023-02-22T21:12:02.828Z,100221.78
2023-02-22T21:14:32.445Z,100221.78
2023-02-22T21:17:03.315Z,100226.25
2023-02-22T21:19:33.267Z,100220.91
2023-02-22T21:22:08.022Z,100224.06
2023-02-22T21:24:37.970Z,100212.69
2023-02-22T21:27:08.445Z,100224.81
2023-02-22T21:29:37.346Z,100225.59
2023-02-22T21:32:06.242Z,100230.19
2023-02-22T21:34:35.579Z,100237.16
2023-02-22T21:37:08.373Z,100224.09
2023-02-22T21:39:41.868Z,100230.34
2023-02-22T21:42:17.820Z,100228.88
2023-02-22T21:44:55.821Z,100233.13
2023-02-22T21:47:25.168Z,100232.97
2023-02-22T21:49:54.547Z,100229.13
2023-02-22T21:52:26.025Z,100230.06
2023-02-22T21:54:56.206Z,100233.94
2023-02-22T21:57:26.403Z,100231.59
2023-02-22T21:59:55.880Z,100236.53
2023-02-22T22:02:24.966Z,100238.97
2023-02-22T22:05:01.731Z,100234.75
2023-02-22T22:07:30.388Z,100237.91
2023-02-22T22:10:01.148Z,100230.19
2023-02-22T22:12:38.702Z,100223.22
2023-02-22T22:15:08.399Z,100230.59
2023-02-22T22:17:37.226Z,100223.22
2023-02-22T22:20:06.617Z,100222.50
2023-02-22T22:22:34.740Z,100225.28
2023-02-22T22:25:07.465Z,100217.91
2023-02-22T22:27:35.644Z,100220.69
2023-02-22T22:30:05.284Z,100221.25
2023-02-22T22:32:34.886Z,100220.72
2023-02-22T22:35:07.735Z,100221.09
2023-02-22T22:37:36.960Z,100220.75
2023-02-22T22:40:15.625Z,100210.44
2023-02-22T22:42:46.002Z,100220.78
2023-02-22T22:45:18.213Z,100222.44
2023-02-22T22:47:48.416Z,100219.28
2023-02-22T22:50:19.903Z,100225.22
2023-02-22T22:52:48.973Z,100224.09
2023-02-22T22:55:19.373Z,100230.00
2023-02-22T22:57:47.842Z,100227.97
2023-02-22T23:00:35.317Z,100229.44
2023-02-22T23:03:05.592Z,100222.25
2023-02-22T23:05:38.213Z,100237.59
2023-02-22T23:08:10.902Z,100224.47
2023-02-22T23:10:42.420Z,100234.97
2023-02-22T23:13:12.532Z,100223.75
2023-02-22T23:15:43.819Z,100237.00
2023-02-22T23:18:12.379Z,100238.50
2023-02-22T23:20:40.741Z,100226.88
2023-02-22T23:23:14.598Z,100227.06
2023-02-22T23:25:49.647Z,100233.91
2023-02-22T23:28:18.079Z,100239.25
2023-02-22T23:30:46.570Z,100235.00
2023-02-22T23:33:15.449Z,100233.13
2023-02-22T23:35:48.868Z,100232.06
2023-02-22T23:38:17.366Z,100230.38
2023-02-22T23:40:47.394Z,100234.06
2023-02-22T23:43:17.172Z,100237.94
2023-02-22T23:45:47.762Z,100237.00
2023-02-22T23:48:20.773Z,100247.72
2023-02-22T23:50:49.590Z,100239.78
2023-02-22T23:53:18.639Z,100245.69
2023-02-22T23:55:49.505Z,100247.69
2023-02-22T23:58:23.009Z,100235.91
